Ajax, Kentucky
Current Conditions -  °F | °C
As of 8:53 PM on Friday 31 Oct 2014 (Local Time) from KJKL Reporting Station
Light Snow Light Snow  
Wind Chill: 31°   Ceiling: 500
Heat Index: 35°   Visibility: 7mi
Dew Point: 33°   Wind: 5mph
Humidity: 92%   Direction: NA
Pressure: 29.95"   Gusts: NA
Location:  37.3318°N, 83.1697°W
Report Text: KJKL 010053Z AUTO VRB04KT 7SM -SN OVC005 02/01 A2995 RMK AO2 CIG 003V009 SLP148 P0003 T00170006
Loading
Personal Weather Stations






























Interactive Weather Map
Tropical Storm Tracking
New forecast layout! Learn more

10-Day Weather Forecast

Advertisements
Track Severe Weather on mobile